createdAt,value
2022-11-25T00:01:16.588Z,95900.88
2022-11-25T00:03:45.241Z,95911.72
2022-11-25T00:06:15.865Z,95887.06
2022-11-25T00:08:45.374Z,95907.78
2022-11-25T00:11:14.219Z,95899.72
2022-11-25T00:13:43.308Z,95926.00
2022-11-25T00:16:12.793Z,95920.34
2022-11-25T00:18:41.495Z,95923.97
2022-11-25T00:21:10.687Z,95918.53
2022-11-25T00:23:40.107Z,95923.41
2022-11-25T00:26:10.196Z,95917.75
2022-11-25T00:28:38.221Z,95838.97
2022-11-25T00:31:08.011Z,95851.38
2022-11-25T00:33:35.827Z,95910.56
2022-11-25T00:36:04.206Z,95913.38
2022-11-25T00:38:31.998Z,95915.75
2022-11-25T00:41:18.606Z,95918.78
2022-11-25T00:44:04.115Z,95908.81
2022-11-25T00:46:31.737Z,95919.22
2022-11-25T00:48:59.445Z,95913.19
2022-11-25T00:51:27.188Z,95830.25
2022-11-25T00:53:59.038Z,95845.75
2022-11-25T00:56:28.326Z,95919.47
2022-11-25T00:58:56.162Z,95889.69
2022-11-25T01:01:24.043Z,95918.91
2022-11-25T01:03:52.843Z,95918.63
2022-11-25T01:06:21.115Z,95849.06
2022-11-25T01:08:49.519Z,95930.69
2022-11-25T01:11:20.481Z,95915.88
2022-11-25T01:13:49.861Z,95837.38
2022-11-25T01:16:19.637Z,95904.06
2022-11-25T01:18:48.346Z,95895.13
2022-11-25T01:21:18.636Z,95885.03
2022-11-25T01:23:48.450Z,95907.91
2022-11-25T01:26:19.509Z,95879.59
2022-11-25T01:28:48.968Z,95914.41
2022-11-25T01:31:18.837Z,95914.03
2022-11-25T01:33:48.240Z,95859.97
2022-11-25T01:36:19.213Z,95888.50
2022-11-25T01:38:51.900Z,95911.94
2022-11-25T01:41:20.493Z,95920.97
2022-11-25T01:44:09.002Z,95919.22
2022-11-25T01:46:51.553Z,95920.13
2022-11-25T01:49:22.309Z,95921.53
2022-11-25T01:51:54.547Z,95918.81
2022-11-25T01:54:27.347Z,95919.38
2022-11-25T01:57:02.992Z,95873.56
2022-11-25T01:59:36.428Z,95913.25
2022-11-25T02:02:07.742Z,95911.88
2022-11-25T02:04:38.255Z,95908.28
2022-11-25T02:07:10.781Z,95910.66
2022-11-25T02:09:42.708Z,95809.28
2022-11-25T02:12:11.457Z,95806.16
2022-11-25T02:14:41.184Z,95895.06
2022-11-25T02:17:08.885Z,95897.66
2022-11-25T02:19:50.960Z,95882.66
2022-11-25T02:22:26.307Z,95902.72
2022-11-25T02:25:02.438Z,95902.34
2022-11-25T02:27:31.642Z,95892.09
2022-11-25T02:29:59.527Z,95891.91
2022-11-25T02:32:27.235Z,95898.88
2022-11-25T02:34:54.996Z,95857.06
2022-11-25T02:37:25.082Z,95905.25
2022-11-25T02:39:54.394Z,95902.09
2022-11-25T02:42:23.694Z,95902.09
2022-11-25T02:44:52.889Z,95910.44
2022-11-25T02:47:20.682Z,95896.81
2022-11-25T02:49:48.488Z,95908.78
2022-11-25T02:52:16.467Z,95909.19
2022-11-25T02:54:44.208Z,95898.59
2022-11-25T02:57:11.923Z,95885.50
2022-11-25T02:59:41.333Z,95903.38
2022-11-25T03:02:10.484Z,95912.81
2022-11-25T03:04:38.807Z,95914.63
2022-11-25T03:07:06.759Z,95891.09
2022-11-25T03:09:34.487Z,95909.09
2022-11-25T03:12:20.430Z,95886.72
2022-11-25T03:14:49.091Z,95899.19
2022-11-25T03:17:18.241Z,95903.81
2022-11-25T03:19:46.389Z,95896.44
2022-11-25T03:22:14.178Z,95809.41
2022-11-25T03:24:41.828Z,95834.00
2022-11-25T03:27:09.699Z,95894.63
2022-11-25T03:29:37.444Z,95896.94
2022-11-25T03:32:09.285Z,95897.38
2022-11-25T03:34:39.384Z,95897.16
2022-11-25T03:37:07.414Z,95900.34
2022-11-25T03:39:36.013Z,95890.25
2022-11-25T03:42:03.973Z,95906.13
2022-11-25T03:44:32.368Z,95901.69
2022-11-25T03:47:00.048Z,95884.69
2022-11-25T03:49:28.639Z,95898.31
2022-11-25T03:51:57.758Z,95912.16
2022-11-25T03:54:26.251Z,95908.34
2022-11-25T03:57:17.959Z,95900.69
2022-11-25T03:59:46.479Z,95878.78
2022-11-25T04:02:15.200Z,95899.91
2022-11-25T04:04:43.777Z,95884.31
2022-11-25T04:07:13.776Z,95923.06
2022-11-25T04:09:41.977Z,95916.63
2022-11-25T04:12:29.288Z,95916.94
2022-11-25T04:15:06.203Z,95854.13
2022-11-25T04:17:34.405Z,95915.78
2022-11-25T04:20:02.231Z,95926.00
2022-11-25T04:22:32.261Z,95806.31
2022-11-25T04:25:01.960Z,95886.91
2022-11-25T04:27:30.393Z,95920.81
2022-11-25T04:29:58.345Z,95898.19
2022-11-25T04:32:27.285Z,95931.66
2022-11-25T04:34:55.160Z,95933.66
2022-11-25T04:37:23.893Z,95840.78
2022-11-25T04:39:53.541Z,95939.56
2022-11-25T04:42:34.462Z,95920.97
2022-11-25T04:45:24.390Z,95892.84
2022-11-25T04:47:54.423Z,95928.84
2022-11-25T04:50:24.209Z,95845.34
2022-11-25T04:53:07.365Z,95934.31
2022-11-25T04:55:38.556Z,95931.22
2022-11-25T04:58:10.943Z,95931.88
2022-11-25T05:00:39.644Z,95926.09
2022-11-25T05:03:08.514Z,95852.91
2022-11-25T05:05:39.181Z,95922.41
2022-11-25T05:08:07.149Z,95931.22
2022-11-25T05:10:34.901Z,95917.41
2022-11-25T05:13:04.229Z,95913.03
2022-11-25T05:15:31.968Z,95926.97
2022-11-25T05:17:59.742Z,95837.47
2022-11-25T05:20:44.007Z,95926.16
2022-11-25T05:23:12.265Z,95919.72
2022-11-25T05:25:39.998Z,95929.84
2022-11-25T05:28:45.338Z,95924.13
2022-11-25T05:31:13.798Z,95927.72
2022-11-25T05:33:41.573Z,95935.41
2022-11-25T05:36:11.296Z,95932.47
2022-11-25T05:38:43.997Z,95926.06
2022-11-25T05:41:14.855Z,95940.59
2022-11-25T05:43:47.134Z,95850.16
2022-11-25T05:46:15.024Z,95807.31
2022-11-25T05:48:54.185Z,95920.22
2022-11-25T05:51:22.243Z,95928.53
2022-11-25T05:53:51.214Z,95841.66
2022-11-25T05:56:21.186Z,95914.41
2022-11-25T05:59:10.946Z,95956.31
2022-11-25T06:01:53.955Z,95958.97
2022-11-25T06:04:21.939Z,95967.00
2022-11-25T06:06:49.808Z,95947.75
2022-11-25T06:09:18.358Z,95954.16
2022-11-25T06:11:46.395Z,95946.94
2022-11-25T06:14:17.594Z,95942.31
2022-11-25T06:16:47.310Z,95932.72
2022-11-25T06:19:31.613Z,95830.34
2022-11-25T06:21:59.331Z,95944.06
2022-11-25T06:24:28.595Z,95922.25
2022-11-25T06:27:01.135Z,95946.50
2022-11-25T06:29:30.192Z,95920.31
2022-11-25T06:31:57.959Z,95887.53
2022-11-25T06:34:41.889Z,95924.84
2022-11-25T06:37:16.717Z,95934.22
2022-11-25T06:39:44.383Z,95921.69
2022-11-25T06:42:12.387Z,95861.25
2022-11-25T06:44:41.430Z,95936.50
2022-11-25T06:47:09.169Z,95933.50
2022-11-25T06:49:36.821Z,95941.03
2022-11-25T06:52:04.586Z,95938.31
2022-11-25T06:54:32.395Z,95941.19
2022-11-25T06:57:00.195Z,95902.59
2022-11-25T06:59:27.890Z,95919.13
2022-11-25T07:01:57.029Z,95937.88
2022-11-25T07:04:24.740Z,95919.06
2022-11-25T07:06:52.808Z,95950.59
2022-11-25T07:09:22.385Z,95922.53
2022-11-25T07:11:50.225Z,95944.84
2022-11-25T07:14:18.524Z,95937.16
2022-11-25T07:16:47.196Z,95857.03
2022-11-25T07:19:18.727Z,95955.06
2022-11-25T07:21:47.169Z,95930.47
2022-11-25T07:24:16.594Z,95949.41
2022-11-25T07:26:44.962Z,95929.91
2022-11-25T07:29:36.366Z,95960.72
2022-11-25T07:32:05.808Z,95953.25
2022-11-25T07:34:39.552Z,95957.47
2022-11-25T07:37:08.030Z,95872.56
2022-11-25T07:39:35.986Z,95862.47
2022-11-25T07:42:04.086Z,95950.91
2022-11-25T07:44:31.771Z,95943.22
2022-11-25T07:47:10.114Z,95949.69
2022-11-25T07:49:39.442Z,95955.56
2022-11-25T07:52:07.199Z,95950.81
2022-11-25T07:54:35.033Z,95966.53
2022-11-25T07:57:02.721Z,95971.41
2022-11-25T07:59:30.370Z,95974.00
2022-11-25T08:01:58.078Z,95988.59
2022-11-25T08:04:25.846Z,95865.13
2022-11-25T08:06:55.046Z,95983.66
2022-11-25T08:09:25.198Z,95966.00
2022-11-25T08:11:53.417Z,95977.66
2022-11-25T08:14:21.401Z,95951.25
2022-11-25T08:16:49.191Z,95973.78
2022-11-25T08:19:18.512Z,95886.41
2022-11-25T08:21:47.778Z,95976.03
2022-11-25T08:24:18.771Z,95970.50
2022-11-25T08:26:46.931Z,95979.34
2022-11-25T08:29:16.226Z,95971.41
2022-11-25T08:31:44.274Z,95971.94
2022-11-25T08:34:18.925Z,95975.13
2022-11-25T08:36:48.740Z,95968.97
2022-11-25T08:42:08.301Z,95978.72
2022-11-25T08:44:36.582Z,95984.06
2022-11-25T08:47:04.637Z,95999.31
2022-11-25T08:49:36.185Z,96013.69
2022-11-25T08:52:08.022Z,96019.00
2022-11-25T08:54:37.154Z,96025.56
2022-11-25T08:57:05.021Z,96038.47
2022-11-25T08:59:32.665Z,96016.97
2022-11-25T09:02:00.590Z,96041.84
2022-11-25T09:04:28.374Z,95936.81
2022-11-25T09:06:56.048Z,95973.81
2022-11-25T09:09:23.880Z,95921.28
2022-11-25T09:11:52.924Z,96049.41
2022-11-25T09:14:20.663Z,95934.53
2022-11-25T09:16:48.484Z,96009.34
2022-11-25T09:19:16.285Z,96044.09
2022-11-25T09:21:44.197Z,96033.84
2022-11-25T09:24:11.891Z,95927.56
2022-11-25T09:26:41.136Z,96059.06
2022-11-25T09:29:12.881Z,96057.00
2022-11-25T09:31:40.783Z,96057.81
2022-11-25T09:34:09.840Z,96063.91
2022-11-25T09:36:37.545Z,96015.59
2022-11-25T09:39:05.448Z,96052.53
2022-11-25T09:42:09.083Z,96054.28
2022-11-25T09:45:08.405Z,96047.75
2022-11-25T09:47:52.916Z,96042.22
2022-11-25T09:50:36.348Z,95939.53
2022-11-25T09:53:15.179Z,96051.53
2022-11-25T09:55:46.648Z,96052.75
2022-11-25T09:58:24.617Z,96043.78
2022-11-25T10:00:54.445Z,96033.81
2022-11-25T10:03:34.301Z,96059.16
2022-11-25T10:06:06.449Z,96057.91
2022-11-25T10:08:39.741Z,95988.09
2022-11-25T10:11:18.250Z,96046.47
2022-11-25T10:13:53.853Z,96049.34
2022-11-25T10:16:35.922Z,96047.13
2022-11-25T10:19:13.189Z,96017.69
2022-11-25T10:21:41.193Z,96047.56
2022-11-25T10:24:14.466Z,96056.88
2022-11-25T10:26:44.985Z,96046.91
2022-11-25T10:29:24.462Z,96059.31
2022-11-25T10:32:02.538Z,96054.88
2022-11-25T10:34:36.866Z,96059.09
2022-11-25T10:37:12.014Z,96055.44
2022-11-25T10:39:39.797Z,96059.69
2022-11-25T10:42:15.087Z,96050.47
2022-11-25T10:44:43.214Z,96054.97
2022-11-25T10:47:27.382Z,96050.47
2022-11-25T10:50:08.857Z,96043.66
2022-11-25T10:52:41.782Z,96054.47
2022-11-25T10:55:14.345Z,96045.50
2022-11-25T10:57:42.989Z,96049.97
2022-11-25T11:00:30.293Z,96052.88
2022-11-25T11:03:01.501Z,96049.94
2022-11-25T11:05:46.740Z,96043.88
2022-11-25T11:08:21.439Z,95991.53
2022-11-25T11:11:11.288Z,96038.41
2022-11-25T11:13:41.730Z,96045.00
2022-11-25T11:16:24.762Z,96009.75
2022-11-25T11:18:54.247Z,96036.59
2022-11-25T11:21:25.028Z,95930.31
2022-11-25T11:23:57.783Z,96028.34
2022-11-25T11:26:27.839Z,96036.47
2022-11-25T11:29:02.213Z,96035.44
2022-11-25T11:31:35.760Z,96027.03
2022-11-25T11:34:45.427Z,96030.16
2022-11-25T11:37:29.735Z,96033.84
2022-11-25T11:40:15.856Z,96022.63
2022-11-25T11:42:55.210Z,96033.94
2022-11-25T11:45:38.855Z,96014.75
2022-11-25T11:48:19.281Z,96029.19
2022-11-25T11:50:49.605Z,96036.06
2022-11-25T11:53:25.327Z,96039.22
2022-11-25T11:56:33.124Z,96030.00
2022-11-25T11:59:01.875Z,96035.50
2022-11-25T12:01:49.869Z,96025.25
2022-11-25T12:04:23.363Z,96035.00
2022-11-25T12:07:01.405Z,96032.88
2022-11-25T12:09:35.368Z,96030.25
2022-11-25T12:12:06.646Z,96035.00
2022-11-25T12:14:42.856Z,96023.19
2022-11-25T12:17:15.753Z,96003.97
2022-11-25T12:19:53.103Z,96036.31
2022-11-25T12:22:26.584Z,96022.13
2022-11-25T12:25:05.212Z,96031.84
2022-11-25T12:27:38.721Z,96030.28
2022-11-25T12:30:11.079Z,96024.75
2022-11-25T12:32:52.116Z,96031.31
2022-11-25T12:35:26.206Z,95995.56
2022-11-25T12:38:02.302Z,96009.50
2022-11-25T12:40:38.464Z,96057.59
2022-11-25T12:43:18.915Z,95947.72
2022-11-25T12:45:52.520Z,96036.28
2022-11-25T12:48:21.601Z,96016.53
2022-11-25T12:50:58.135Z,96023.91
2022-11-25T12:53:37.813Z,96025.00
2022-11-25T12:56:17.417Z,96023.66
2022-11-25T12:59:00.890Z,96020.53
2022-11-25T13:01:50.222Z,96044.44
2022-11-25T13:04:36.565Z,96021.03
2022-11-25T13:07:25.817Z,96030.22
2022-11-25T13:10:18.895Z,96024.97
2022-11-25T13:13:01.049Z,96034.97
2022-11-25T13:15:31.572Z,96027.88
2022-11-25T13:18:03.210Z,96028.41
2022-11-25T13:20:45.016Z,96026.84
2022-11-25T13:23:25.085Z,96020.81
2022-11-25T13:25:54.454Z,96037.63
2022-11-25T13:28:41.397Z,96036.06
2022-11-25T13:31:24.306Z,96033.44
2022-11-25T13:34:30.655Z,96036.03
2022-11-25T13:37:00.162Z,96037.38
2022-11-25T13:39:33.143Z,96020.81
2022-11-25T13:42:03.571Z,96044.97
2022-11-25T13:44:36.020Z,96045.25
2022-11-25T13:47:25.286Z,96047.34
2022-11-25T13:49:55.630Z,96049.97
2022-11-25T13:52:33.903Z,96047.63
2022-11-25T13:55:04.053Z,96052.63
2022-11-25T13:57:34.628Z,96052.09
2022-11-25T14:00:09.032Z,96023.66
2022-11-25T14:02:45.207Z,96057.59
2022-11-25T14:05:42.902Z,96058.66
2022-11-25T14:08:22.715Z,96054.97
2022-11-25T14:11:00.841Z,96064.44
2022-11-25T14:13:58.662Z,95974.47
2022-11-25T14:16:55.891Z,96074.97
2022-11-25T14:19:51.724Z,96078.63
2022-11-25T14:22:37.778Z,96080.47
2022-11-25T14:25:15.937Z,96011.00
2022-11-25T14:27:47.948Z,96091.22
2022-11-25T14:30:17.604Z,96094.91
2022-11-25T14:32:55.912Z,96107.28
2022-11-25T14:35:31.235Z,96112.31
2022-11-25T14:38:02.365Z,96120.44
2022-11-25T14:40:35.753Z,96123.31
2022-11-25T14:43:06.168Z,96077.50
2022-11-25T14:45:35.915Z,96131.41
2022-11-25T14:48:16.171Z,96118.47
2022-11-25T14:50:55.947Z,96144.03
2022-11-25T14:53:23.846Z,96124.25
2022-11-25T14:55:51.958Z,96144.28
2022-11-25T14:58:20.168Z,96142.13
2022-11-25T15:00:52.886Z,96157.59
2022-11-25T15:03:22.201Z,96140.44
2022-11-25T15:05:57.032Z,96159.69
2022-11-25T15:08:26.743Z,96171.25
2022-11-25T15:10:57.087Z,96165.44
2022-11-25T15:13:34.161Z,96167.28
2022-11-25T15:16:08.580Z,96165.66
2022-11-25T15:18:39.235Z,96173.53
2022-11-25T15:21:07.628Z,96172.69
2022-11-25T15:23:38.503Z,96171.38
2022-11-25T15:26:18.024Z,96163.41
2022-11-25T15:28:47.476Z,96183.13
2022-11-25T15:31:20.675Z,96194.63
2022-11-25T15:33:54.801Z,96138.66
2022-11-25T15:36:23.378Z,96201.19
2022-11-25T15:38:51.193Z,96197.97
2022-11-25T15:41:21.838Z,96198.47
2022-11-25T15:43:52.940Z,96196.00
2022-11-25T15:46:21.332Z,96201.28
2022-11-25T15:48:54.334Z,96208.41
2022-11-25T15:51:31.607Z,96210.97
2022-11-25T15:54:04.125Z,96212.00
2022-11-25T15:56:34.270Z,96212.75
2022-11-25T15:59:02.316Z,96207.38
2022-11-25T16:01:31.445Z,96224.81
2022-11-25T16:04:20.537Z,96226.31
2022-11-25T16:06:55.600Z,96236.06
2022-11-25T16:09:25.285Z,96164.84
2022-11-25T16:11:53.000Z,96233.94
2022-11-25T16:14:27.355Z,96237.00
2022-11-25T16:16:59.695Z,96240.66
2022-11-25T16:19:37.991Z,96242.47
2022-11-25T16:22:06.776Z,96248.75
2022-11-25T16:24:48.406Z,96252.94
2022-11-25T16:27:19.585Z,96227.41
2022-11-25T16:29:53.338Z,96244.53
2022-11-25T16:32:23.155Z,96254.28
2022-11-25T16:34:52.671Z,96256.19
2022-11-25T16:37:20.398Z,96255.78
2022-11-25T16:39:48.079Z,96267.69
2022-11-25T16:42:20.835Z,96266.06
2022-11-25T16:44:50.221Z,96278.13
2022-11-25T16:47:19.069Z,96273.13
2022-11-25T16:49:47.466Z,96276.56
2022-11-25T16:52:16.665Z,96289.13
2022-11-25T16:54:44.381Z,96233.09
2022-11-25T16:57:18.348Z,96293.81
2022-11-25T16:59:51.113Z,96300.47
2022-11-25T17:02:23.488Z,96297.00
2022-11-25T17:04:51.403Z,96289.75
2022-11-25T17:07:36.234Z,96318.81
2022-11-25T17:10:04.572Z,96319.31
2022-11-25T17:12:35.986Z,96326.81
2022-11-25T17:15:07.426Z,96236.03
2022-11-25T17:17:35.587Z,96334.22
2022-11-25T17:20:03.322Z,96333.38
2022-11-25T17:22:38.921Z,96345.16
2022-11-25T17:25:08.003Z,96351.19
2022-11-25T17:27:35.907Z,96288.22
2022-11-25T17:30:06.531Z,96357.69
2022-11-25T17:32:35.355Z,96337.06
2022-11-25T17:35:03.009Z,96360.47
2022-11-25T17:37:32.937Z,96365.47
2022-11-25T17:40:00.682Z,96352.03
2022-11-25T17:42:31.174Z,96358.88
2022-11-25T17:44:59.321Z,96373.88
2022-11-25T17:47:27.096Z,96384.38
2022-11-25T17:49:54.795Z,96384.91
2022-11-25T17:52:22.535Z,96390.66
2022-11-25T17:54:51.557Z,96380.25
2022-11-25T17:57:22.610Z,96296.97
2022-11-25T17:59:50.864Z,96388.53
2022-11-25T18:02:20.667Z,96397.97
2022-11-25T18:04:48.498Z,96406.09
2022-11-25T18:07:16.424Z,96407.88
2022-11-25T18:09:45.131Z,96402.50
2022-11-25T18:12:19.741Z,96402.31
2022-11-25T18:14:47.610Z,96412.69
2022-11-25T18:17:18.803Z,96422.06
2022-11-25T18:19:52.955Z,96380.75
2022-11-25T18:22:23.928Z,96414.31
2022-11-25T18:24:53.061Z,96431.38
2022-11-25T18:27:26.816Z,96428.41
2022-11-25T18:29:56.357Z,96345.50
2022-11-25T18:32:24.412Z,96424.75
2022-11-25T18:34:52.699Z,96429.97
2022-11-25T18:37:20.424Z,96427.84
2022-11-25T18:39:50.999Z,96426.81
2022-11-25T18:42:25.787Z,96424.25
2022-11-25T18:44:54.457Z,96430.31
2022-11-25T18:47:22.125Z,96432.84
2022-11-25T18:49:55.187Z,96434.84
2022-11-25T18:52:23.370Z,96438.50
2022-11-25T18:54:51.243Z,96443.75
2022-11-25T18:57:19.202Z,96454.47
2022-11-25T19:00:10.230Z,96459.72
2022-11-25T19:02:36.154Z,96464.72
2022-11-25T19:05:06.953Z,96462.34
2022-11-25T19:07:34.673Z,96474.19
2022-11-25T19:10:02.347Z,96442.91
2022-11-25T19:12:30.093Z,96468.28
2022-11-25T19:14:59.231Z,96475.13
2022-11-25T19:17:29.941Z,96465.28
2022-11-25T19:19:57.637Z,96483.78
2022-11-25T19:22:25.359Z,96426.59
2022-11-25T19:24:53.056Z,96493.88
2022-11-25T19:27:23.382Z,96499.84
2022-11-25T19:29:53.279Z,96504.28
2022-11-25T19:32:25.171Z,96508.63
2022-11-25T19:34:56.107Z,96510.72
2022-11-25T19:37:24.062Z,96512.00
2022-11-25T19:39:52.923Z,96526.34
2022-11-25T19:42:20.984Z,96527.88
2022-11-25T19:44:48.648Z,96508.13
2022-11-25T19:47:20.876Z,96533.47
2022-11-25T19:49:51.629Z,96543.28
2022-11-25T19:52:22.029Z,96542.75
2022-11-25T19:54:49.974Z,96445.34
2022-11-25T19:57:18.861Z,96551.31
2022-11-25T19:59:50.032Z,96558.28
2022-11-25T20:02:21.659Z,96560.94
2022-11-25T20:04:53.923Z,96545.59
2022-11-25T20:07:22.337Z,96573.13
2022-11-25T20:09:51.698Z,96570.50
2022-11-25T20:12:22.189Z,96573.13
2022-11-25T20:14:50.948Z,96575.75
2022-11-25T20:17:25.328Z,96581.00
2022-11-25T20:19:57.042Z,96577.47
2022-11-25T20:22:27.839Z,96524.53
2022-11-25T20:24:56.424Z,96588.88
2022-11-25T20:27:27.113Z,96580.13
2022-11-25T20:29:55.061Z,96604.84
2022-11-25T20:32:29.199Z,96610.84
2022-11-25T20:34:59.481Z,96601.06
2022-11-25T20:37:30.278Z,96617.38
2022-11-25T20:40:00.919Z,96623.50
2022-11-25T20:42:28.704Z,96603.16
2022-11-25T20:44:57.912Z,96631.38
2022-11-25T20:47:27.230Z,96644.56
2022-11-25T20:49:55.093Z,96642.41
2022-11-25T20:52:30.468Z,96652.88
2022-11-25T20:54:58.778Z,96651.50
2022-11-25T20:57:26.632Z,96654.13
2022-11-25T20:59:54.431Z,96632.03
2022-11-25T21:02:22.377Z,96657.97
2022-11-25T21:04:50.093Z,96659.59
2022-11-25T21:07:18.590Z,96666.72
2022-11-25T21:09:47.674Z,96668.00
2022-11-25T21:12:19.442Z,96631.34
2022-11-25T21:14:47.789Z,96639.66
2022-11-25T21:17:15.447Z,96671.28
2022-11-25T21:19:43.231Z,96680.75
2022-11-25T21:22:14.290Z,96683.25
2022-11-25T21:24:44.567Z,96684.50
2022-11-25T21:27:15.914Z,96692.25
2022-11-25T21:29:45.688Z,96688.50
2022-11-25T21:32:21.484Z,96693.03
2022-11-25T21:34:49.585Z,96698.59
2022-11-25T21:37:21.129Z,96696.31
2022-11-25T21:39:48.969Z,96692.34
2022-11-25T21:42:21.766Z,96701.09
2022-11-25T21:44:50.935Z,96625.00
2022-11-25T21:47:20.860Z,96699.75
2022-11-25T21:49:49.001Z,96714.53
2022-11-25T21:52:17.299Z,96713.53
2022-11-25T21:54:45.727Z,96703.97
2022-11-25T21:57:16.746Z,96703.59
2022-11-25T21:59:46.660Z,96716.34
2022-11-25T22:02:19.269Z,96691.69
2022-11-25T22:04:47.032Z,96724.78
2022-11-25T22:07:14.969Z,96723.06
2022-11-25T22:09:43.020Z,96700.88
2022-11-25T22:12:24.591Z,96733.22
2022-11-25T22:14:54.343Z,96639.63
2022-11-25T22:17:22.274Z,96739.00
2022-11-25T22:19:50.255Z,96641.72
2022-11-25T22:22:18.865Z,96732.88
2022-11-25T22:24:48.942Z,96746.88
2022-11-25T22:27:22.084Z,96748.69
2022-11-25T22:29:50.158Z,96754.16
2022-11-25T22:32:19.583Z,96744.56
2022-11-25T22:34:47.252Z,96761.44
2022-11-25T22:37:17.836Z,96756.53
2022-11-25T22:39:46.075Z,96760.75
2022-11-25T22:42:20.976Z,96748.22
2022-11-25T22:44:50.613Z,96759.03
2022-11-25T22:47:26.143Z,96753.47
2022-11-25T22:49:54.688Z,96757.78
2022-11-25T22:52:25.119Z,96758.59
2022-11-25T22:54:52.849Z,96759.28
2022-11-25T22:57:20.994Z,96760.53
2022-11-25T22:59:48.708Z,96759.72
2022-11-25T23:02:22.696Z,96768.50
2022-11-25T23:04:54.524Z,96766.44
2022-11-25T23:07:24.791Z,96767.72
2022-11-25T23:09:54.176Z,96747.22
2022-11-25T23:12:21.821Z,96766.13
2022-11-25T23:14:49.451Z,96768.75
2022-11-25T23:17:20.231Z,96780.81
2022-11-25T23:19:49.806Z,96779.44
2022-11-25T23:22:18.596Z,96775.09
2022-11-25T23:24:48.633Z,96778.63
2022-11-25T23:27:17.022Z,96778.28
2022-11-25T23:29:44.976Z,96783.06
2022-11-25T23:32:18.765Z,96784.66
2022-11-25T23:34:47.130Z,96781.81
2022-11-25T23:37:16.372Z,96782.38
2022-11-25T23:39:53.853Z,96786.03
2022-11-25T23:42:21.815Z,96789.13
2022-11-25T23:44:50.012Z,96785.69
2022-11-25T23:47:20.569Z,96789.22
2022-11-25T23:49:50.970Z,96791.63
2022-11-25T23:52:23.862Z,96790.25
2022-11-25T23:54:53.435Z,96784.09
2022-11-25T23:57:23.017Z,96780.09
2022-11-25T23:59:51.751Z,96795.84
